createdAt,value
2022-12-09T00:03:23.630Z,9.43
2022-12-09T00:08:25.468Z,8.60
2022-12-09T00:13:26.810Z,7.53
2022-12-09T00:18:28.072Z,7.53
2022-12-09T00:23:29.316Z,7.32
2022-12-09T00:28:30.561Z,8.15
2022-12-09T00:33:32.443Z,8.05
2022-12-09T00:38:34.049Z,7.77
2022-12-09T00:43:35.411Z,8.07
2022-12-09T00:48:38.639Z,8.20
2022-12-09T00:53:40.155Z,9.15
2022-12-09T00:58:41.812Z,8.30
2022-12-09T01:03:43.547Z,7.77
2022-12-09T01:08:45.932Z,8.27
2022-12-09T01:13:48.336Z,8.25
2022-12-09T01:18:49.953Z,7.90
2022-12-09T01:23:51.396Z,9.27
2022-12-09T01:28:55.350Z,8.70
2022-12-09T01:33:56.958Z,9.23
2022-12-09T01:38:59.319Z,8.80
2022-12-09T01:44:20.880Z,8.60
2022-12-09T01:49:24.833Z,9.40
2022-12-09T01:54:26.233Z,8.47
2022-12-09T01:59:28.603Z,7.57
2022-12-09T02:04:31.544Z,7.25
2022-12-09T02:09:32.942Z,7.22
2022-12-09T02:14:40.379Z,7.57
2022-12-09T02:19:41.889Z,6.60
2022-12-09T02:24:48.051Z,6.97
2022-12-09T02:29:55.229Z,6.22
2022-12-09T02:35:09.531Z,6.00
2022-12-09T02:40:18.130Z,6.50
2022-12-09T02:45:21.452Z,7.13
2022-12-09T02:50:23.989Z,5.97
2022-12-09T02:55:25.595Z,6.20
2022-12-09T03:00:27.732Z,6.93
2022-12-09T03:05:29.235Z,6.40
2022-12-09T03:10:33.785Z,5.77
2022-12-09T03:15:36.105Z,5.85
2022-12-09T03:20:39.387Z,5.75
2022-12-09T03:25:43.712Z,5.82
2022-12-09T03:30:45.590Z,6.07
2022-12-09T03:35:50.366Z,5.30
2022-12-09T03:40:53.940Z,5.93
2022-12-09T03:45:56.309Z,5.43
2022-12-09T03:51:05.683Z,5.90
2022-12-09T03:56:13.143Z,5.45
2022-12-09T04:01:14.698Z,5.67
2022-12-09T04:06:16.104Z,6.10
2022-12-09T04:11:17.762Z,6.00
2022-12-09T04:16:19.417Z,5.43
2022-12-09T04:21:20.826Z,5.68
2022-12-09T04:26:22.885Z,6.17
2022-12-09T04:31:24.414Z,5.97
2022-12-09T04:36:25.746Z,6.03
2022-12-09T04:41:27.031Z,5.63
2022-12-09T04:46:28.415Z,6.20
2022-12-09T04:51:35.841Z,7.13
2022-12-09T04:56:41.074Z,9.02
2022-12-09T05:01:42.942Z,7.90
2022-12-09T05:06:44.453Z,6.03
2022-12-09T05:11:46.331Z,6.30
2022-12-09T05:16:48.180Z,7.20
2022-12-09T05:21:49.726Z,5.95
2022-12-09T05:26:51.345Z,6.68
2022-12-09T05:31:52.813Z,7.28
2022-12-09T05:36:54.819Z,6.00
2022-12-09T05:41:56.501Z,5.90
2022-12-09T05:46:58.224Z,6.38
2022-12-09T05:51:59.733Z,6.78
2022-12-09T05:57:03.647Z,6.78
2022-12-09T06:02:09.797Z,6.70
2022-12-09T06:07:12.131Z,6.70
2022-12-09T06:12:13.634Z,6.10
2022-12-09T06:17:15.059Z,8.23
2022-12-09T06:22:16.802Z,6.82
2022-12-09T06:27:18.348Z,12.18
2022-12-09T06:32:19.856Z,10.83
2022-12-09T06:37:21.823Z,7.28
2022-12-09T06:42:23.160Z,10.43
2022-12-09T06:47:24.998Z,9.68
2022-12-09T06:52:26.465Z,7.70
2022-12-09T06:57:28.048Z,7.43
2022-12-09T07:02:35.427Z,7.38
2022-12-09T07:07:37.535Z,7.90
2022-12-09T07:12:38.933Z,7.93
2022-12-09T07:17:40.686Z,7.10
2022-12-09T07:22:42.170Z,8.20
2022-12-09T07:27:44.218Z,8.23
2022-12-09T07:32:45.802Z,9.18
2022-12-09T07:37:47.529Z,8.32
2022-12-09T07:42:48.984Z,8.90
2022-12-09T07:47:51.485Z,10.00
2022-12-09T07:52:53.136Z,9.70
2022-12-09T07:57:54.639Z,9.55
2022-12-09T08:02:56.257Z,8.13
2022-12-09T08:07:57.926Z,9.20
2022-12-09T08:13:00.022Z,9.07
2022-12-09T08:18:01.804Z,10.05
2022-12-09T08:23:03.569Z,10.65
2022-12-09T08:28:05.419Z,11.13
2022-12-09T08:33:07.247Z,11.18
2022-12-09T08:38:09.062Z,9.73
2022-12-09T08:43:10.793Z,10.77
2022-12-09T08:48:12.666Z,10.98
2022-12-09T08:53:14.565Z,11.32
2022-12-09T08:58:15.967Z,12.23
2022-12-09T09:03:17.443Z,12.37
2022-12-09T09:08:19.098Z,11.43
2022-12-09T09:13:20.735Z,13.30
2022-12-09T09:18:22.142Z,11.13
2022-12-09T09:23:23.556Z,11.93
2022-12-09T09:28:30.639Z,11.53
2022-12-09T09:33:33.269Z,11.88
2022-12-09T09:38:35.356Z,12.75
2022-12-09T09:43:38.329Z,12.45
2022-12-09T09:48:39.820Z,12.07
2022-12-09T09:53:42.444Z,11.50
2022-12-09T09:58:51.798Z,12.70
2022-12-09T10:04:05.765Z,11.48
2022-12-09T10:09:13.582Z,11.57
2022-12-09T10:14:16.761Z,12.13
2022-12-09T10:19:28.560Z,11.60
2022-12-09T10:24:39.848Z,11.48
2022-12-09T10:29:47.086Z,11.18
2022-12-09T10:34:48.720Z,11.07
2022-12-09T10:39:53.553Z,12.27
2022-12-09T10:45:03.981Z,14.67
2022-12-09T10:50:06.329Z,13.77
2022-12-09T10:55:20.903Z,10.82
2022-12-09T11:00:27.143Z,9.75
2022-12-09T11:05:33.745Z,9.70
2022-12-09T11:10:36.226Z,9.67
2022-12-09T11:15:40.206Z,10.00
2022-12-09T11:20:42.097Z,8.77
2022-12-09T11:25:54.824Z,10.57
2022-12-09T11:36:23.272Z,10.43
2022-12-09T11:41:45.037Z,9.55
2022-12-09T11:46:54.254Z,9.85
2022-12-09T11:52:04.756Z,10.18
2022-12-09T11:57:06.820Z,12.07
2022-12-09T12:02:46.459Z,11.40
2022-12-09T12:07:55.848Z,11.30
2022-12-09T12:13:19.024Z,10.63
2022-12-09T12:18:21.589Z,9.93
2022-12-09T12:23:41.016Z,11.98
2022-12-09T12:28:57.212Z,10.67
2022-12-09T12:34:28.261Z,10.18
2022-12-09T12:39:44.716Z,10.70
2022-12-09T12:45:31.053Z,10.80
2022-12-09T12:50:47.679Z,10.35
2022-12-09T12:55:52.292Z,10.10
2022-12-09T13:01:01.259Z,10.55
2022-12-09T13:06:03.003Z,11.73
2022-12-09T13:11:11.641Z,11.38
2022-12-09T13:16:25.437Z,11.48
2022-12-09T13:21:26.876Z,11.47
2022-12-09T13:26:49.571Z,10.38
2022-12-09T13:31:56.907Z,10.00
2022-12-09T13:36:58.184Z,9.80
2022-12-09T13:42:18.294Z,11.90
2022-12-09T13:47:25.499Z,11.73
2022-12-09T13:52:55.949Z,10.75
2022-12-09T13:58:01.917Z,9.93
2022-12-09T14:03:12.135Z,12.73
2022-12-09T14:08:20.308Z,11.30
2022-12-09T14:13:26.693Z,11.73
2022-12-09T14:18:30.444Z,12.05
2022-12-09T14:23:31.804Z,11.05
2022-12-09T14:28:42.081Z,10.95
2022-12-09T14:33:46.321Z,10.45
2022-12-09T14:39:27.034Z,11.93
2022-12-09T14:44:46.777Z,10.75
2022-12-09T14:49:49.703Z,11.55
2022-12-09T14:54:51.446Z,9.48
2022-12-09T15:00:19.749Z,11.02
2022-12-09T15:05:21.392Z,10.93
2022-12-09T15:10:32.332Z,10.90
2022-12-09T15:15:36.363Z,10.63
2022-12-09T15:20:38.877Z,11.75
2022-12-09T15:25:51.210Z,10.73
2022-12-09T15:31:03.049Z,11.40
2022-12-09T15:36:09.077Z,11.32
2022-12-09T15:41:28.818Z,12.95
2022-12-09T15:46:32.596Z,12.43
2022-12-09T15:51:36.426Z,11.05
2022-12-09T15:56:39.363Z,10.47
2022-12-09T16:01:46.684Z,12.00
2022-12-09T16:06:48.918Z,12.95
2022-12-09T16:11:51.322Z,12.35
2022-12-09T16:16:57.474Z,14.45
2022-12-09T16:22:00.629Z,17.60
2022-12-09T16:27:05.026Z,14.05
2022-12-09T16:32:16.455Z,43.13
2022-12-09T16:37:29.628Z,24.08
2022-12-09T16:42:35.338Z,18.02
2022-12-09T16:47:40.704Z,17.20
2022-12-09T16:52:42.021Z,19.17
2022-12-09T16:57:44.231Z,19.17
2022-12-09T17:02:48.533Z,26.63
2022-12-09T17:07:49.927Z,41.92
2022-12-09T17:12:51.272Z,17.77
2022-12-09T17:17:52.603Z,16.73
2022-12-09T17:22:53.881Z,14.38
2022-12-09T17:27:55.753Z,15.73
2022-12-09T17:32:58.753Z,14.40
2022-12-09T17:38:00.276Z,16.63
2022-12-09T17:43:01.558Z,15.05
2022-12-09T17:48:03.103Z,14.00
2022-12-09T17:53:04.404Z,14.90
2022-12-09T17:58:05.700Z,14.27
2022-12-09T18:03:07.300Z,13.30
2022-12-09T18:08:08.687Z,12.25
2022-12-09T18:13:09.999Z,14.13
2022-12-09T18:18:11.235Z,14.80
2022-12-09T18:23:12.766Z,14.95
2022-12-09T18:28:14.059Z,16.70
2022-12-09T18:33:15.346Z,15.80
2022-12-09T18:38:16.636Z,14.10
2022-12-09T18:43:17.863Z,13.18
2022-12-09T18:48:19.131Z,13.02
2022-12-09T18:53:20.383Z,13.80
2022-12-09T18:58:36.844Z,15.57
2022-12-09T19:03:43.730Z,15.35
2022-12-09T19:08:45.022Z,14.23
2022-12-09T19:13:46.319Z,13.68
2022-12-09T19:18:47.600Z,13.67
2022-12-09T19:23:49.216Z,17.00
2022-12-09T19:28:52.829Z,17.92
2022-12-09T19:33:55.040Z,19.23
2022-12-09T19:39:00.194Z,17.45
2022-12-09T19:44:01.966Z,16.43
2022-12-09T19:49:03.559Z,15.38
2022-12-09T19:54:05.084Z,18.33
2022-12-09T19:59:06.457Z,16.08
2022-12-09T20:04:46.533Z,16.02
2022-12-09T20:09:31.147Z,16.50
2022-12-09T20:14:32.454Z,15.40
2022-12-09T20:19:35.802Z,17.70
2022-12-09T20:24:37.084Z,16.02
2022-12-09T20:29:38.644Z,14.85
2022-12-09T20:34:40.061Z,15.53
2022-12-09T20:39:41.626Z,14.68
2022-12-09T20:44:42.959Z,14.15
2022-12-09T20:49:44.260Z,15.32
2022-12-09T20:54:45.515Z,13.95
2022-12-09T20:59:46.828Z,14.57
2022-12-09T21:04:48.114Z,15.30
2022-12-09T21:09:49.363Z,17.13
2022-12-09T21:14:50.708Z,17.15
2022-12-09T21:19:52.014Z,16.70
2022-12-09T21:24:53.274Z,17.17
2022-12-09T21:29:54.574Z,15.85
2022-12-09T21:34:57.963Z,15.93
2022-12-09T21:39:59.185Z,14.90
2022-12-09T21:45:00.456Z,16.08
2022-12-09T21:50:01.690Z,14.97
2022-12-09T21:55:03.456Z,14.35
2022-12-09T22:00:05.446Z,14.63
2022-12-09T22:05:07.464Z,14.38
2022-12-09T22:10:09.292Z,14.80
2022-12-09T22:15:11.005Z,15.00
2022-12-09T22:20:53.984Z,13.25
2022-12-09T22:25:33.732Z,14.13
2022-12-09T22:30:35.914Z,13.68
2022-12-09T22:35:37.179Z,13.57
2022-12-09T22:40:38.465Z,15.93
2022-12-09T22:45:39.755Z,15.63
2022-12-09T22:50:41.181Z,15.63
2022-12-09T22:55:46.425Z,14.07
2022-12-09T23:00:47.696Z,14.15
2022-12-09T23:05:49.080Z,13.57
2022-12-09T23:10:50.412Z,14.77
2022-12-09T23:15:51.714Z,14.50
2022-12-09T23:20:53.066Z,15.00
2022-12-09T23:25:54.414Z,13.95
2022-12-09T23:30:55.825Z,13.17
2022-12-09T23:35:57.191Z,13.65
2022-12-09T23:40:58.530Z,13.25
2022-12-09T23:46:03.693Z,11.93
2022-12-09T23:51:09.407Z,13.57
2022-12-09T23:56:12.558Z,12.83
